sensor_id;sensor_type;location;lat;lon;timestamp;P1;durP1;ratioP1;P2;durP2;ratioP2
7783;SDS011;19359;51.402;6.778;2023-11-18T00:01:10;614.07;;;96.57;;
7783;SDS011;19359;51.402;6.778;2023-11-18T00:03:37;612.47;;;102.37;;
7783;SDS011;19359;51.402;6.778;2023-11-18T00:06:04;610.13;;;99.33;;
7783;SDS011;19359;51.402;6.778;2023-11-18T00:08:34;608.20;;;96.40;;
7783;SDS011;19359;51.402;6.778;2023-11-18T00:11:01;613.77;;;101.87;;
7783;SDS011;19359;51.402;6.778;2023-11-18T00:13:29;612.93;;;100.63;;
7783;SDS011;19359;51.402;6.778;2023-11-18T00:15:56;612.07;;;99.37;;
7783;SDS011;19359;51.402;6.778;2023-11-18T00:18:23;607.40;;;100.03;;
7783;SDS011;19359;51.402;6.778;2023-11-18T00:20:51;615.97;;;97.87;;
7783;SDS011;19359;51.402;6.778;2023-11-18T00:23:18;611.27;;;97.07;;
7783;SDS011;19359;51.402;6.778;2023-11-18T00:25:46;613.10;;;98.50;;
7783;SDS011;19359;51.402;6.778;2023-11-18T00:28:13;610.17;;;97.83;;
7783;SDS011;19359;51.402;6.778;2023-11-18T00:30:40;616.73;;;100.90;;
7783;SDS011;19359;51.402;6.778;2023-11-18T00:33:07;610.10;;;100.30;;
7783;SDS011;19359;51.402;6.778;2023-11-18T00:35:34;611.33;;;97.67;;
7783;SDS011;19359;51.402;6.778;2023-11-18T00:38:02;618.90;;;98.40;;
7783;SDS011;19359;51.402;6.778;2023-11-18T00:40:29;614.40;;;97.03;;
7783;SDS011;19359;51.402;6.778;2023-11-18T00:42:58;611.57;;;99.47;;
7783;SDS011;19359;51.402;6.778;2023-11-18T00:45:25;607.83;;;95.97;;
7783;SDS011;19359;51.402;6.778;2023-11-18T00:47:53;608.67;;;98.87;;
7783;SDS011;19359;51.402;6.778;2023-11-18T00:50:21;611.37;;;99.73;;
7783;SDS011;19359;51.402;6.778;2023-11-18T00:52:48;605.80;;;95.80;;
7783;SDS011;19359;51.402;6.778;2023-11-18T00:55:15;609.50;;;98.73;;
7783;SDS011;19359;51.402;6.778;2023-11-18T00:57:44;608.43;;;98.67;;
7783;SDS011;19359;51.402;6.778;2023-11-18T01:00:13;605.30;;;96.10;;
7783;SDS011;19359;51.402;6.778;2023-11-18T01:02:41;613.30;;;100.80;;
7783;SDS011;19359;51.402;6.778;2023-11-18T01:05:08;605.17;;;100.13;;
7783;SDS011;19359;51.402;6.778;2023-11-18T01:07:36;609.47;;;98.20;;
7783;SDS011;19359;51.402;6.778;2023-11-18T01:10:03;602.03;;;95.97;;
7783;SDS011;19359;51.402;6.778;2023-11-18T01:12:31;608.97;;;99.90;;
7783;SDS011;19359;51.402;6.778;2023-11-18T01:14:58;609.20;;;100.80;;
7783;SDS011;19359;51.402;6.778;2023-11-18T01:17:26;608.67;;;98.30;;
7783;SDS011;19359;51.402;6.778;2023-11-18T01:19:54;604.20;;;97.83;;
7783;SDS011;19359;51.402;6.778;2023-11-18T01:22:21;606.87;;;99.80;;
7783;SDS011;19359;51.402;6.778;2023-11-18T01:24:49;609.77;;;98.97;;
7783;SDS011;19359;51.402;6.778;2023-11-18T01:27:17;608.63;;;100.23;;
7783;SDS011;19359;51.402;6.778;2023-11-18T01:29:44;613.30;;;102.17;;
7783;SDS011;19359;51.402;6.778;2023-11-18T01:32:12;613.03;;;98.37;;
7783;SDS011;19359;51.402;6.778;2023-11-18T01:34:40;610.17;;;99.70;;
7783;SDS011;19359;51.402;6.778;2023-11-18T01:37:08;608.80;;;100.97;;
7783;SDS011;19359;51.402;6.778;2023-11-18T01:39:36;613.83;;;99.93;;
7783;SDS011;19359;51.402;6.778;2023-11-18T01:42:03;610.27;;;98.73;;
7783;SDS011;19359;51.402;6.778;2023-11-18T01:44:30;610.47;;;100.40;;
7783;SDS011;19359;51.402;6.778;2023-11-18T01:46:59;614.47;;;99.37;;
7783;SDS011;19359;51.402;6.778;2023-11-18T01:49:29;608.87;;;97.93;;
7783;SDS011;19359;51.402;6.778;2023-11-18T01:51:58;604.30;;;98.77;;
7783;SDS011;19359;51.402;6.778;2023-11-18T01:54:26;609.53;;;97.27;;
7783;SDS011;19359;51.402;6.778;2023-11-18T01:56:53;603.60;;;96.67;;
7783;SDS011;19359;51.402;6.778;2023-11-18T01:59:21;608.77;;;98.10;;
7783;SDS011;19359;51.402;6.778;2023-11-18T02:01:49;607.70;;;98.57;;
7783;SDS011;19359;51.402;6.778;2023-11-18T02:04:18;613.87;;;99.57;;
7783;SDS011;19359;51.402;6.778;2023-11-18T02:06:46;609.50;;;98.43;;
7783;SDS011;19359;51.402;6.778;2023-11-18T02:09:16;609.47;;;99.23;;
7783;SDS011;19359;51.402;6.778;2023-11-18T02:11:45;611.87;;;95.77;;
7783;SDS011;19359;51.402;6.778;2023-11-18T02:14:18;616.23;;;97.23;;
7783;SDS011;19359;51.402;6.778;2023-11-18T02:16:47;606.50;;;95.57;;
7783;SDS011;19359;51.402;6.778;2023-11-18T02:19:19;613.93;;;98.73;;
7783;SDS011;19359;51.402;6.778;2023-11-18T02:21:47;609.13;;;97.40;;
7783;SDS011;19359;51.402;6.778;2023-11-18T02:24:25;606.53;;;98.47;;
7783;SDS011;19359;51.402;6.778;2023-11-18T02:26:56;613.83;;;98.13;;
7783;SDS011;19359;51.402;6.778;2023-11-18T02:29:23;608.50;;;97.67;;
7783;SDS011;19359;51.402;6.778;2023-11-18T02:31:52;612.43;;;100.10;;
7783;SDS011;19359;51.402;6.778;2023-11-18T02:34:23;605.17;;;97.50;;
7783;SDS011;19359;51.402;6.778;2023-11-18T02:36:54;605.37;;;96.20;;
7783;SDS011;19359;51.402;6.778;2023-11-18T02:39:27;614.30;;;101.33;;
7783;SDS011;19359;51.402;6.778;2023-11-18T02:42:01;608.37;;;98.17;;
7783;SDS011;19359;51.402;6.778;2023-11-18T02:44:29;607.50;;;98.37;;
7783;SDS011;19359;51.402;6.778;2023-11-18T02:46:57;611.10;;;97.83;;
7783;SDS011;19359;51.402;6.778;2023-11-18T02:49:24;607.67;;;97.63;;
7783;SDS011;19359;51.402;6.778;2023-11-18T02:51:52;608.90;;;99.37;;
7783;SDS011;19359;51.402;6.778;2023-11-18T02:54:20;610.17;;;101.67;;
7783;SDS011;19359;51.402;6.778;2023-11-18T02:56:47;604.63;;;94.97;;
7783;SDS011;19359;51.402;6.778;2023-11-18T02:59:16;609.87;;;98.90;;
7783;SDS011;19359;51.402;6.778;2023-11-18T03:01:43;606.40;;;96.23;;
7783;SDS011;19359;51.402;6.778;2023-11-18T03:04:10;611.43;;;98.80;;
7783;SDS011;19359;51.402;6.778;2023-11-18T03:06:39;610.53;;;98.87;;
7783;SDS011;19359;51.402;6.778;2023-11-18T03:09:07;609.63;;;99.13;;
7783;SDS011;19359;51.402;6.778;2023-11-18T03:11:35;610.00;;;100.90;;
7783;SDS011;19359;51.402;6.778;2023-11-18T03:14:03;608.93;;;98.13;;
7783;SDS011;19359;51.402;6.778;2023-11-18T03:16:35;607.30;;;96.63;;
7783;SDS011;19359;51.402;6.778;2023-11-18T03:19:03;607.77;;;97.63;;
7783;SDS011;19359;51.402;6.778;2023-11-18T03:21:32;606.83;;;97.67;;
7783;SDS011;19359;51.402;6.778;2023-11-18T03:23:59;611.67;;;96.30;;
7783;SDS011;19359;51.402;6.778;2023-11-18T03:26:26;608.10;;;96.60;;
7783;SDS011;19359;51.402;6.778;2023-11-18T03:28:53;607.57;;;97.63;;
7783;SDS011;19359;51.402;6.778;2023-11-18T03:31:20;609.43;;;96.53;;
7783;SDS011;19359;51.402;6.778;2023-11-18T03:33:48;610.13;;;98.90;;
7783;SDS011;19359;51.402;6.778;2023-11-18T03:36:17;613.00;;;98.33;;
7783;SDS011;19359;51.402;6.778;2023-11-18T03:38:44;607.30;;;95.70;;
7783;SDS011;19359;51.402;6.778;2023-11-18T03:41:12;616.37;;;98.53;;
7783;SDS011;19359;51.402;6.778;2023-11-18T03:43:39;609.37;;;98.27;;
7783;SDS011;19359;51.402;6.778;2023-11-18T03:46:06;612.17;;;96.77;;
7783;SDS011;19359;51.402;6.778;2023-11-18T03:48:35;610.93;;;102.10;;
7783;SDS011;19359;51.402;6.778;2023-11-18T03:51:05;611.80;;;98.50;;
7783;SDS011;19359;51.402;6.778;2023-11-18T03:53:32;605.97;;;97.20;;
7783;SDS011;19359;51.402;6.778;2023-11-18T03:55:59;611.80;;;98.70;;
7783;SDS011;19359;51.402;6.778;2023-11-18T03:58:27;613.17;;;99.07;;
7783;SDS011;19359;51.402;6.778;2023-11-18T04:00:54;613.37;;;98.37;;
7783;SDS011;19359;51.402;6.778;2023-11-18T04:03:21;613.23;;;97.10;;
7783;SDS011;19359;51.402;6.778;2023-11-18T04:05:48;609.93;;;96.87;;
7783;SDS011;19359;51.402;6.778;2023-11-18T04:08:17;613.90;;;98.93;;
7783;SDS011;19359;51.402;6.778;2023-11-18T04:10:44;612.97;;;97.07;;
7783;SDS011;19359;51.402;6.778;2023-11-18T04:13:11;611.50;;;98.93;;
7783;SDS011;19359;51.402;6.778;2023-11-18T04:15:38;614.60;;;98.47;;
7783;SDS011;19359;51.402;6.778;2023-11-18T04:18:05;606.90;;;97.80;;
7783;SDS011;19359;51.402;6.778;2023-11-18T04:20:32;617.57;;;98.67;;
7783;SDS011;19359;51.402;6.778;2023-11-18T04:22:59;611.70;;;99.50;;
7783;SDS011;19359;51.402;6.778;2023-11-18T04:25:28;612.77;;;100.43;;
7783;SDS011;19359;51.402;6.778;2023-11-18T04:27:55;607.63;;;97.30;;
7783;SDS011;19359;51.402;6.778;2023-11-18T04:30:22;614.50;;;97.73;;
7783;SDS011;19359;51.402;6.778;2023-11-18T04:32:51;606.20;;;96.83;;
7783;SDS011;19359;51.402;6.778;2023-11-18T04:35:19;605.17;;;96.20;;
7783;SDS011;19359;51.402;6.778;2023-11-18T04:37:47;616.07;;;99.63;;
7783;SDS011;19359;51.402;6.778;2023-11-18T04:40:14;605.97;;;96.00;;
7783;SDS011;19359;51.402;6.778;2023-11-18T04:42:43;611.43;;;98.80;;
7783;SDS011;19359;51.402;6.778;2023-11-18T04:45:10;613.40;;;97.70;;
7783;SDS011;19359;51.402;6.778;2023-11-18T04:47:39;607.87;;;94.57;;
7783;SDS011;19359;51.402;6.778;2023-11-18T04:50:08;608.40;;;97.70;;
7783;SDS011;19359;51.402;6.778;2023-11-18T04:52:35;615.63;;;97.90;;
7783;SDS011;19359;51.402;6.778;2023-11-18T04:55:03;613.37;;;97.60;;
7783;SDS011;19359;51.402;6.778;2023-11-18T04:57:31;606.20;;;95.83;;
7783;SDS011;19359;51.402;6.778;2023-11-18T05:00:00;611.70;;;98.37;;
7783;SDS011;19359;51.402;6.778;2023-11-18T05:02:35;610.97;;;97.80;;
7783;SDS011;19359;51.402;6.778;2023-11-18T05:05:02;608.07;;;97.57;;
7783;SDS011;19359;51.402;6.778;2023-11-18T05:07:30;608.20;;;97.63;;
7783;SDS011;19359;51.402;6.778;2023-11-18T05:09:58;605.47;;;95.47;;
7783;SDS011;19359;51.402;6.778;2023-11-18T05:12:25;609.27;;;98.43;;
7783;SDS011;19359;51.402;6.778;2023-11-18T05:14:54;609.33;;;96.47;;
7783;SDS011;19359;51.402;6.778;2023-11-18T05:17:23;613.33;;;99.43;;
7783;SDS011;19359;51.402;6.778;2023-11-18T05:19:49;607.13;;;96.40;;
7783;SDS011;19359;51.402;6.778;2023-11-18T05:22:18;608.17;;;97.50;;
7783;SDS011;19359;51.402;6.778;2023-11-18T05:24:45;612.07;;;98.33;;
7783;SDS011;19359;51.402;6.778;2023-11-18T05:27:13;614.17;;;100.17;;
7783;SDS011;19359;51.402;6.778;2023-11-18T05:29:40;607.70;;;97.70;;
7783;SDS011;19359;51.402;6.778;2023-11-18T05:32:07;612.03;;;96.77;;
7783;SDS011;19359;51.402;6.778;2023-11-18T05:34:36;605.90;;;97.80;;
7783;SDS011;19359;51.402;6.778;2023-11-18T05:37:03;602.47;;;95.43;;
7783;SDS011;19359;51.402;6.778;2023-11-18T05:39:30;607.53;;;94.73;;
7783;SDS011;19359;51.402;6.778;2023-11-18T05:41:58;608.07;;;95.83;;
7783;SDS011;19359;51.402;6.778;2023-11-18T05:44:25;611.03;;;98.80;;
7783;SDS011;19359;51.402;6.778;2023-11-18T05:47:02;603.43;;;95.87;;
7783;SDS011;19359;51.402;6.778;2023-11-18T05:49:29;610.47;;;97.30;;
7783;SDS011;19359;51.402;6.778;2023-11-18T05:51:58;611.27;;;102.17;;
7783;SDS011;19359;51.402;6.778;2023-11-18T05:54:25;606.37;;;97.83;;
7783;SDS011;19359;51.402;6.778;2023-11-18T05:56:52;620.40;;;102.40;;
7783;SDS011;19359;51.402;6.778;2023-11-18T05:59:20;604.20;;;96.63;;
7783;SDS011;19359;51.402;6.778;2023-11-18T06:01:48;614.80;;;100.03;;
7783;SDS011;19359;51.402;6.778;2023-11-18T06:04:16;610.90;;;100.13;;
7783;SDS011;19359;51.402;6.778;2023-11-18T06:06:43;608.03;;;99.23;;
7783;SDS011;19359;51.402;6.778;2023-11-18T06:09:11;608.13;;;99.67;;
7783;SDS011;19359;51.402;6.778;2023-11-18T06:11:45;618.90;;;101.93;;
7783;SDS011;19359;51.402;6.778;2023-11-18T06:14:14;613.33;;;97.40;;
7783;SDS011;19359;51.402;6.778;2023-11-18T06:16:43;608.80;;;97.77;;
7783;SDS011;19359;51.402;6.778;2023-11-18T06:19:10;614.03;;;100.73;;
7783;SDS011;19359;51.402;6.778;2023-11-18T06:21:37;613.90;;;99.80;;
7783;SDS011;19359;51.402;6.778;2023-11-18T06:24:04;612.30;;;100.07;;
7783;SDS011;19359;51.402;6.778;2023-11-18T06:26:33;609.87;;;100.03;;
7783;SDS011;19359;51.402;6.778;2023-11-18T06:29:01;610.27;;;98.33;;
7783;SDS011;19359;51.402;6.778;2023-11-18T06:31:29;611.87;;;98.37;;
7783;SDS011;19359;51.402;6.778;2023-11-18T06:33:56;612.50;;;99.33;;
7783;SDS011;19359;51.402;6.778;2023-11-18T06:36:23;609.00;;;99.83;;
7783;SDS011;19359;51.402;6.778;2023-11-18T06:38:52;620.40;;;99.07;;
7783;SDS011;19359;51.402;6.778;2023-11-18T06:41:20;610.63;;;98.43;;
7783;SDS011;19359;51.402;6.778;2023-11-18T06:43:52;612.67;;;100.47;;
7783;SDS011;19359;51.402;6.778;2023-11-18T06:46:26;606.57;;;96.23;;
7783;SDS011;19359;51.402;6.778;2023-11-18T06:48:56;608.93;;;98.93;;
7783;SDS011;19359;51.402;6.778;2023-11-18T06:51:24;616.03;;;101.10;;
7783;SDS011;19359;51.402;6.778;2023-11-18T06:53:52;611.83;;;100.07;;
7783;SDS011;19359;51.402;6.778;2023-11-18T06:56:20;614.63;;;100.33;;
7783;SDS011;19359;51.402;6.778;2023-11-18T06:58:47;611.57;;;100.57;;
7783;SDS011;19359;51.402;6.778;2023-11-18T07:01:15;617.87;;;102.10;;
7783;SDS011;19359;51.402;6.778;2023-11-18T07:03:43;612.57;;;100.43;;
7783;SDS011;19359;51.402;6.778;2023-11-18T07:06:10;608.57;;;96.73;;
7783;SDS011;19359;51.402;6.778;2023-11-18T07:08:39;610.60;;;99.00;;
7783;SDS011;19359;51.402;6.778;2023-11-18T07:11:06;612.03;;;99.87;;
7783;SDS011;19359;51.402;6.778;2023-11-18T07:13:33;620.07;;;102.87;;
7783;SDS011;19359;51.402;6.778;2023-11-18T07:16:00;612.53;;;99.33;;
7783;SDS011;19359;51.402;6.778;2023-11-18T07:18:31;612.73;;;100.50;;
7783;SDS011;19359;51.402;6.778;2023-11-18T07:20:58;612.97;;;101.33;;
7783;SDS011;19359;51.402;6.778;2023-11-18T07:23:25;617.67;;;100.53;;
7783;SDS011;19359;51.402;6.778;2023-11-18T07:25:53;613.40;;;97.70;;
7783;SDS011;19359;51.402;6.778;2023-11-18T07:28:21;614.37;;;99.37;;
7783;SDS011;19359;51.402;6.778;2023-11-18T07:30:48;617.40;;;101.00;;
7783;SDS011;19359;51.402;6.778;2023-11-18T07:33:16;622.50;;;103.37;;
7783;SDS011;19359;51.402;6.778;2023-11-18T07:35:45;619.03;;;103.30;;
7783;SDS011;19359;51.402;6.778;2023-11-18T07:38:13;611.47;;;98.73;;
7783;SDS011;19359;51.402;6.778;2023-11-18T07:40:40;614.20;;;101.23;;
7783;SDS011;19359;51.402;6.778;2023-11-18T07:43:10;616.83;;;103.13;;
7783;SDS011;19359;51.402;6.778;2023-11-18T07:45:38;611.67;;;97.83;;
7783;SDS011;19359;51.402;6.778;2023-11-18T07:48:07;611.67;;;100.90;;
7783;SDS011;19359;51.402;6.778;2023-11-18T07:50:35;617.37;;;101.73;;
7783;SDS011;19359;51.402;6.778;2023-11-18T07:53:03;619.40;;;101.27;;
7783;SDS011;19359;51.402;6.778;2023-11-18T07:55:31;611.60;;;101.87;;
7783;SDS011;19359;51.402;6.778;2023-11-18T07:57:59;616.03;;;102.27;;
7783;SDS011;19359;51.402;6.778;2023-11-18T08:00:26;616.23;;;101.57;;
7783;SDS011;19359;51.402;6.778;2023-11-18T08:02:55;617.17;;;103.53;;
7783;SDS011;19359;51.402;6.778;2023-11-18T08:05:25;617.87;;;100.57;;
7783;SDS011;19359;51.402;6.778;2023-11-18T08:07:53;619.87;;;102.13;;
7783;SDS011;19359;51.402;6.778;2023-11-18T08:10:21;618.40;;;101.67;;
7783;SDS011;19359;51.402;6.778;2023-11-18T08:12:50;616.27;;;101.80;;
7783;SDS011;19359;51.402;6.778;2023-11-18T08:15:19;620.23;;;103.93;;
7783;SDS011;19359;51.402;6.778;2023-11-18T08:17:46;617.57;;;100.60;;
7783;SDS011;19359;51.402;6.778;2023-11-18T08:20:14;618.33;;;104.80;;
7783;SDS011;19359;51.402;6.778;2023-11-18T08:22:41;627.47;;;106.93;;
7783;SDS011;19359;51.402;6.778;2023-11-18T08:25:09;614.37;;;104.33;;
7783;SDS011;19359;51.402;6.778;2023-11-18T08:27:39;617.93;;;103.57;;
7783;SDS011;19359;51.402;6.778;2023-11-18T08:30:06;618.50;;;103.83;;
7783;SDS011;19359;51.402;6.778;2023-11-18T08:32:36;622.37;;;102.37;;
7783;SDS011;19359;51.402;6.778;2023-11-18T08:35:04;635.23;;;107.27;;
7783;SDS011;19359;51.402;6.778;2023-11-18T08:37:32;619.20;;;103.90;;
7783;SDS011;19359;51.402;6.778;2023-11-18T08:40:00;623.17;;;106.43;;
7783;SDS011;19359;51.402;6.778;2023-11-18T08:42:28;620.80;;;104.13;;
7783;SDS011;19359;51.402;6.778;2023-11-18T08:44:58;619.07;;;102.13;;
7783;SDS011;19359;51.402;6.778;2023-11-18T08:47:25;623.43;;;103.93;;
7783;SDS011;19359;51.402;6.778;2023-11-18T08:49:53;622.87;;;105.00;;
7783;SDS011;19359;51.402;6.778;2023-11-18T08:52:20;623.17;;;106.83;;
7783;SDS011;19359;51.402;6.778;2023-11-18T08:54:47;621.93;;;104.47;;
7783;SDS011;19359;51.402;6.778;2023-11-18T08:57:32;625.10;;;106.93;;
7783;SDS011;19359;51.402;6.778;2023-11-18T09:00:15;622.87;;;103.20;;
7783;SDS011;19359;51.402;6.778;2023-11-18T09:03:04;626.93;;;108.10;;
7783;SDS011;19359;51.402;6.778;2023-11-18T09:05:32;626.03;;;107.07;;
7783;SDS011;19359;51.402;6.778;2023-11-18T09:07:58;624.37;;;107.17;;
7783;SDS011;19359;51.402;6.778;2023-11-18T09:10:27;622.60;;;107.50;;
7783;SDS011;19359;51.402;6.778;2023-11-18T09:12:54;627.80;;;109.57;;
7783;SDS011;19359;51.402;6.778;2023-11-18T09:15:23;631.93;;;109.90;;
7783;SDS011;19359;51.402;6.778;2023-11-18T09:17:50;629.33;;;109.00;;
7783;SDS011;19359;51.402;6.778;2023-11-18T09:20:18;624.97;;;105.23;;
7783;SDS011;19359;51.402;6.778;2023-11-18T09:22:47;626.17;;;105.63;;
7783;SDS011;19359;51.402;6.778;2023-11-18T09:25:14;632.40;;;107.33;;
7783;SDS011;19359;51.402;6.778;2023-11-18T09:27:42;626.20;;;108.40;;
7783;SDS011;19359;51.402;6.778;2023-11-18T09:30:10;629.33;;;108.77;;
7783;SDS011;19359;51.402;6.778;2023-11-18T09:32:40;627.87;;;109.93;;
7783;SDS011;19359;51.402;6.778;2023-11-18T09:35:08;625.77;;;107.33;;
7783;SDS011;19359;51.402;6.778;2023-11-18T09:37:37;626.63;;;106.17;;
7783;SDS011;19359;51.402;6.778;2023-11-18T09:40:06;624.50;;;106.00;;
7783;SDS011;19359;51.402;6.778;2023-11-18T09:42:37;628.07;;;106.97;;
7783;SDS011;19359;51.402;6.778;2023-11-18T09:45:05;626.60;;;107.87;;
7783;SDS011;19359;51.402;6.778;2023-11-18T09:47:38;630.63;;;107.80;;
7783;SDS011;19359;51.402;6.778;2023-11-18T09:50:12;649.70;;;108.33;;
7783;SDS011;19359;51.402;6.778;2023-11-18T09:52:47;631.10;;;109.17;;
7783;SDS011;19359;51.402;6.778;2023-11-18T09:55:19;627.63;;;108.23;;
7783;SDS011;19359;51.402;6.778;2023-11-18T09:57:55;628.97;;;109.47;;
7783;SDS011;19359;51.402;6.778;2023-11-18T10:00:29;631.90;;;111.20;;
7783;SDS011;19359;51.402;6.778;2023-11-18T10:02:59;628.87;;;109.87;;
7783;SDS011;19359;51.402;6.778;2023-11-18T10:05:27;631.13;;;109.07;;
7783;SDS011;19359;51.402;6.778;2023-11-18T10:07:55;629.80;;;109.43;;
7783;SDS011;19359;51.402;6.778;2023-11-18T10:10:23;628.73;;;109.77;;
7783;SDS011;19359;51.402;6.778;2023-11-18T10:13:01;630.37;;;110.87;;
7783;SDS011;19359;51.402;6.778;2023-11-18T10:15:30;630.60;;;109.63;;
7783;SDS011;19359;51.402;6.778;2023-11-18T10:17:57;633.70;;;112.77;;
7783;SDS011;19359;51.402;6.778;2023-11-18T10:20:42;634.93;;;114.80;;
7783;SDS011;19359;51.402;6.778;2023-11-18T10:23:11;634.03;;;114.33;;
7783;SDS011;19359;51.402;6.778;2023-11-18T10:25:45;636.80;;;114.93;;
7783;SDS011;19359;51.402;6.778;2023-11-18T10:28:20;632.13;;;110.97;;
7783;SDS011;19359;51.402;6.778;2023-11-18T10:30:48;634.67;;;113.43;;
7783;SDS011;19359;51.402;6.778;2023-11-18T10:33:16;635.10;;;112.47;;
7783;SDS011;19359;51.402;6.778;2023-11-18T10:35:51;639.80;;;118.27;;
7783;SDS011;19359;51.402;6.778;2023-11-18T10:38:21;640.90;;;116.10;;
7783;SDS011;19359;51.402;6.778;2023-11-18T10:40:50;636.20;;;114.37;;
7783;SDS011;19359;51.402;6.778;2023-11-18T10:43:20;640.33;;;117.03;;
7783;SDS011;19359;51.402;6.778;2023-11-18T10:45:49;643.40;;;116.67;;
7783;SDS011;19359;51.402;6.778;2023-11-18T10:48:18;639.33;;;115.03;;
7783;SDS011;19359;51.402;6.778;2023-11-18T10:50:46;640.07;;;116.97;;
7783;SDS011;19359;51.402;6.778;2023-11-18T10:53:16;639.57;;;115.87;;
7783;SDS011;19359;51.402;6.778;2023-11-18T10:55:44;642.43;;;118.47;;
7783;SDS011;19359;51.402;6.778;2023-11-18T10:58:11;643.87;;;115.23;;
7783;SDS011;19359;51.402;6.778;2023-11-18T11:00:45;640.30;;;115.73;;
7783;SDS011;19359;51.402;6.778;2023-11-18T11:03:16;636.77;;;114.57;;
7783;SDS011;19359;51.402;6.778;2023-11-18T11:05:44;641.83;;;118.03;;
7783;SDS011;19359;51.402;6.778;2023-11-18T11:08:13;640.17;;;117.60;;
7783;SDS011;19359;51.402;6.778;2023-11-18T11:10:42;635.00;;;114.20;;
7783;SDS011;19359;51.402;6.778;2023-11-18T11:13:10;646.93;;;115.80;;
7783;SDS011;19359;51.402;6.778;2023-11-18T11:15:41;639.83;;;115.67;;
7783;SDS011;19359;51.402;6.778;2023-11-18T11:18:14;637.43;;;114.87;;
7783;SDS011;19359;51.402;6.778;2023-11-18T11:20:52;641.83;;;117.10;;
7783;SDS011;19359;51.402;6.778;2023-11-18T11:23:30;635.43;;;113.40;;
7783;SDS011;19359;51.402;6.778;2023-11-18T11:26:13;640.17;;;115.00;;
7783;SDS011;19359;51.402;6.778;2023-11-18T11:28:52;636.47;;;116.87;;
7783;SDS011;19359;51.402;6.778;2023-11-18T11:31:26;637.90;;;115.90;;
7783;SDS011;19359;51.402;6.778;2023-11-18T11:33:58;636.33;;;115.70;;
7783;SDS011;19359;51.402;6.778;2023-11-18T11:36:32;636.33;;;115.30;;
7783;SDS011;19359;51.402;6.778;2023-11-18T11:39:04;646.80;;;114.13;;
7783;SDS011;19359;51.402;6.778;2023-11-18T11:41:36;637.63;;;113.30;;
7783;SDS011;19359;51.402;6.778;2023-11-18T11:44:04;638.80;;;117.67;;
7783;SDS011;19359;51.402;6.778;2023-11-18T11:46:33;637.83;;;115.63;;
7783;SDS011;19359;51.402;6.778;2023-11-18T11:49:02;636.30;;;114.50;;
7783;SDS011;19359;51.402;6.778;2023-11-18T11:51:39;636.10;;;114.33;;
7783;SDS011;19359;51.402;6.778;2023-11-18T11:54:16;634.83;;;117.17;;
7783;SDS011;19359;51.402;6.778;2023-11-18T11:56:48;637.53;;;117.17;;
7783;SDS011;19359;51.402;6.778;2023-11-18T12:02:23;632.40;;;115.23;;
7783;SDS011;19359;51.402;6.778;2023-11-18T12:04:54;634.03;;;116.57;;
7783;SDS011;19359;51.402;6.778;2023-11-18T12:07:24;631.10;;;117.23;;
7783;SDS011;19359;51.402;6.778;2023-11-18T12:09:54;644.13;;;119.03;;
7783;SDS011;19359;51.402;6.778;2023-11-18T12:12:24;630.97;;;115.10;;
7783;SDS011;19359;51.402;6.778;2023-11-18T12:14:52;631.73;;;116.23;;
7783;SDS011;19359;51.402;6.778;2023-11-18T12:17:22;632.97;;;117.70;;
7783;SDS011;19359;51.402;6.778;2023-11-18T12:19:53;630.33;;;117.17;;
7783;SDS011;19359;51.402;6.778;2023-11-18T12:22:24;628.30;;;116.57;;
7783;SDS011;19359;51.402;6.778;2023-11-18T12:27:57;628.43;;;115.30;;
7783;SDS011;19359;51.402;6.778;2023-11-18T12:30:37;629.13;;;117.70;;
7783;SDS011;19359;51.402;6.778;2023-11-18T12:33:08;626.40;;;113.90;;
7783;SDS011;19359;51.402;6.778;2023-11-18T12:35:46;629.03;;;118.00;;
7783;SDS011;19359;51.402;6.778;2023-11-18T12:41:42;626.13;;;114.13;;
7783;SDS011;19359;51.402;6.778;2023-11-18T12:44:29;627.40;;;117.77;;
7783;SDS011;19359;51.402;6.778;2023-11-18T12:46:59;624.43;;;116.30;;
7783;SDS011;19359;51.402;6.778;2023-11-18T12:49:36;625.57;;;113.70;;
7783;SDS011;19359;51.402;6.778;2023-11-18T12:52:06;623.93;;;112.27;;
7783;SDS011;19359;51.402;6.778;2023-11-18T12:54:34;628.73;;;115.10;;
7783;SDS011;19359;51.402;6.778;2023-11-18T12:57:02;623.40;;;115.20;;
7783;SDS011;19359;51.402;6.778;2023-11-18T12:59:33;623.60;;;114.73;;
7783;SDS011;19359;51.402;6.778;2023-11-18T13:02:01;627.13;;;118.43;;
7783;SDS011;19359;51.402;6.778;2023-11-18T13:04:29;624.27;;;116.60;;
7783;SDS011;19359;51.402;6.778;2023-11-18T13:06:56;623.50;;;114.47;;
7783;SDS011;19359;51.402;6.778;2023-11-18T13:09:25;471.70;;;85.27;;
7783;SDS011;19359;51.402;6.778;2023-11-18T13:11:56;622.37;;;114.60;;
7783;SDS011;19359;51.402;6.778;2023-11-18T13:14:24;628.63;;;118.47;;
7783;SDS011;19359;51.402;6.778;2023-11-18T13:16:53;474.00;;;87.27;;
7783;SDS011;19359;51.402;6.778;2023-11-18T13:19:24;624.20;;;116.43;;
7783;SDS011;19359;51.402;6.778;2023-11-18T13:21:51;622.07;;;115.33;;
7783;SDS011;19359;51.402;6.778;2023-11-18T13:24:19;622.83;;;114.50;;
7783;SDS011;19359;51.402;6.778;2023-11-18T13:26:47;622.80;;;114.63;;
7783;SDS011;19359;51.402;6.778;2023-11-18T13:29:14;625.10;;;115.67;;
7783;SDS011;19359;51.402;6.778;2023-11-18T13:31:42;624.23;;;114.53;;
7783;SDS011;19359;51.402;6.778;2023-11-18T13:34:10;623.47;;;114.17;;
7783;SDS011;19359;51.402;6.778;2023-11-18T13:36:38;625.33;;;117.47;;
7783;SDS011;19359;51.402;6.778;2023-11-18T13:39:05;474.43;;;87.10;;
7783;SDS011;19359;51.402;6.778;2023-11-18T13:41:34;625.83;;;116.07;;
7783;SDS011;19359;51.402;6.778;2023-11-18T13:44:01;628.20;;;114.83;;
7783;SDS011;19359;51.402;6.778;2023-11-18T13:46:29;626.40;;;115.87;;
7783;SDS011;19359;51.402;6.778;2023-11-18T13:48:56;625.97;;;116.83;;
7783;SDS011;19359;51.402;6.778;2023-11-18T13:51:25;624.97;;;117.03;;
7783;SDS011;19359;51.402;6.778;2023-11-18T13:53:53;626.17;;;116.77;;
7783;SDS011;19359;51.402;6.778;2023-11-18T13:56:21;623.97;;;116.80;;
7783;SDS011;19359;51.402;6.778;2023-11-18T13:58:48;484.27;;;87.00;;
7783;SDS011;19359;51.402;6.778;2023-11-18T14:01:15;623.57;;;115.23;;
7783;SDS011;19359;51.402;6.778;2023-11-18T14:03:43;624.70;;;117.97;;
7783;SDS011;19359;51.402;6.778;2023-11-18T14:06:12;624.60;;;118.03;;
7783;SDS011;19359;51.402;6.778;2023-11-18T14:08:43;626.63;;;116.53;;
7783;SDS011;19359;51.402;6.778;2023-11-18T14:11:10;473.70;;;84.60;;
7783;SDS011;19359;51.402;6.778;2023-11-18T14:13:37;627.07;;;116.03;;
7783;SDS011;19359;51.402;6.778;2023-11-18T14:16:05;626.37;;;116.03;;
7783;SDS011;19359;51.402;6.778;2023-11-18T14:18:34;624.03;;;114.93;;
7783;SDS011;19359;51.402;6.778;2023-11-18T14:21:02;625.57;;;115.07;;
7783;SDS011;19359;51.402;6.778;2023-11-18T14:23:30;627.03;;;117.23;;
7783;SDS011;19359;51.402;6.778;2023-11-18T14:25:59;477.23;;;88.93;;
7783;SDS011;19359;51.402;6.778;2023-11-18T14:28:26;625.13;;;117.23;;
7783;SDS011;19359;51.402;6.778;2023-11-18T14:30:54;627.70;;;118.00;;
7783;SDS011;19359;51.402;6.778;2023-11-18T14:33:21;623.33;;;115.33;;